Port Hadlock, WA (98339)

3:37 PM PDT on August 29, 2014 (GMT -0700)
Near Jefferson Co. International Airport | Change Station
CLOSE
Current Station
Personal Weather Station
Location: Port Townsend, WA
Elevation: 271 ft
Nearby Weather Stations

Elev 271 ft 48.06 °N, 122.79 °W | Updated 5 seconds ago

Overcast
Overcast
65.3 °F
Feels Like 65.3 °F
N
4.0
Wind Variable Wind from East
Gusts 4.0 mph

Today
High -- | Low -- °F
--% Chance of Precip.
Yesterday
High -- | Low -- °F
Precip. -- in
6:25 AM 7:57 PM
Waxing Crescent, 17% visible
Pressure 30.00 in
Visibility 10.0 miles
Clouds Few 4000 ft
Mostly Cloudy 7000 ft
Mostly Cloudy 10000 ft
Mostly Cloudy 25000 ft
Dew Point 59 °F
Humidity 81%
Rainfall 0.00 in
Snow Depth 0 in
UV 3 out of 12
Pollen .80 out of 12
PM2.5 Good
Flu Activity Not available.
METAR KNUW 292156Z 16006KT 10SM FEW040 BKN070 BKN100 BKN250 21/12 A2998 RMK AO2 SLP157 T02060117 $

More Conditions Fewer Conditions

Pressure 30.00 in
Visibility 10.0 miles
Clouds Few 4000 ft
Mostly Cloudy 7000 ft
Mostly Cloudy 10000 ft
Mostly Cloudy 25000 ft
Dew Point 59 °F
Humidity 81%
Rainfall 0.00 in
Snow Depth 0 in
UV 3 out of 12
Pollen .80 out of 12
PM2.5 Good
Flu Activity Not available.
METAR KNUW 292156Z 16006KT 10SM FEW040 BKN070 BKN100 BKN250 21/12 A2998 RMK AO2 SLP157 T02060117 $

More Conditions Fewer Conditions

10-Day Weather Forecast

Almanac

Astronomy

Aug. 29, 2014 Rise Set
Actual Time 6:25 AM PDT 7:57 PM PDT
Civil Twilight 5:52 AM PDT 8:30 PM PDT
Nautical Twilight 5:12 AM PDT 9:09 PM PDT
Astronomical Twilight 4:29 AM PDT 9:52 PM PDT
Moon 10:40 AM PDT 9:36 PM PDT
Length of Visible Light 14h 37m
Length of Day
13h 32m
Tomorrow will be 3m 21s shorter.
Waxing Crescent, 17% of the Moon is Illuminated
Today
Waxing Crescent
Sep 2
First Quarter
Sep 8
Full
Sep 15
Last Quarter
Sep 24
New

Today's Extremes

State Highs State Lows

Community

WunderPhotos

Upload Photos

1,748,363 photos uploaded!

Nearby

Air Quality

  Air Quality AQ Index Pollutant
Yesterday Good
PM2.5
Current Good
PM2.5

Snow Depth

Station Depth Elevation
Dungeness 0 in 4100 ft
Mount Crag 0 in 4050 ft
Alpine Meadows 0 in 3500 ft
Elbow Lake 0 in 3200 ft
Mount Gardner 0 in 3000 ft

Earthquake Activity

City Distance Mag. Time & Date
No recent earthquake activity has been reported nearby.
Minimum magnitude displayed is 2.5.

Coastal Water Temperatures

Place Temperature
Port Townsend, WA 53.1 °F
Seattle, WA 57.0 °F
Friday Harbor, WA 53.1 °F
Tacoma, WA 55.0 °F
Port Angeles, WA 53.1 °F

Nearby Weather Stations